Time;durP1;ratioP1;P1;durP2;ratioP2;P2;SDS_P1;SDS_P2;PMS_P1;PMS_P2;Temp;Humidity;BMP_temperature;BMP_pressure;BME280_temperature;BME280_humidity;BME280_pressure;Samples;Min_cycle;Max_cycle;Signal;HPM_P1;HPM_P2
2024/02/07 00:01:18;;;;;;;3.70;2.77;;;;;;;6.01;100.00;152905.88;5030856;28;20444;-77
2024/02/07 00:03:46;;;;;;;4.60;2.90;;;;;;;6.03;100.00;152909.78;5008651;28;20489;-77
2024/02/07 00:06:12;;;;;;;3.63;2.77;;;;;;;6.00;100.00;152902.03;5022934;28;20447;-77
2024/02/07 00:08:39;;;;;;;3.13;2.33;;;;;;;6.01;100.00;152905.88;5027822;28;20459;-77
2024/02/07 00:11:06;;;;;;;3.40;2.53;;;;;;;6.01;100.00;152904.66;5027068;28;20428;-77
2024/02/07 00:13:33;;;;;;;4.53;2.20;;;;;;;5.99;100.00;152900.75;5023716;28;20484;-77
2024/02/07 00:15:59;;;;;;;4.07;2.87;;;;;;;5.95;100.00;152890.44;5041895;28;20448;-76
2024/02/07 00:18:26;;;;;;;2.40;1.80;;;;;;;5.94;100.00;152887.84;5014034;28;20487;-77
2024/02/07 00:20:53;;;;;;;4.50;2.53;;;;;;;5.92;100.00;152882.69;5010303;28;21029;-77
2024/02/07 00:23:19;;;;;;;4.17;2.33;;;;;;;5.89;100.00;152874.97;5018604;28;21870;-77
2024/02/07 00:25:47;;;;;;;3.70;2.60;;;;;;;5.89;100.00;152874.97;5026419;28;20468;-76
2024/02/07 00:28:13;;;;;;;2.30;1.97;;;;;;;5.87;100.00;152868.50;5026670;28;20983;-77
2024/02/07 00:30:40;;;;;;;2.80;2.20;;;;;;;5.83;100.00;152859.41;5026008;28;20460;-76
2024/02/07 00:33:06;;;;;;;2.93;2.10;;;;;;;5.84;100.00;152862.00;5021471;28;20488;-77
2024/02/07 00:35:33;;;;;;;3.73;2.60;;;;;;;5.83;100.00;152859.41;5023999;28;20435;-77
2024/02/07 00:38:00;;;;;;;3.57;2.60;;;;;;;5.82;100.00;152856.88;5028431;28;20479;-77
2024/02/07 00:40:27;;;;;;;5.20;2.23;;;;;;;5.82;100.00;152855.56;5024832;28;20490;-76
2024/02/07 00:42:53;;;;;;;5.40;2.23;;;;;;;5.80;100.00;152850.44;5015164;28;20443;-76
2024/02/07 00:45:20;;;;;;;2.63;2.00;;;;;;;5.79;100.00;152847.81;5023844;28;20456;-78
2024/02/07 00:47:47;;;;;;;3.17;2.53;;;;;;;5.78;100.00;152845.22;5030945;28;20452;-78
2024/02/07 00:50:13;;;;;;;4.10;2.33;;;;;;;5.76;100.00;152841.38;5026721;28;20491;-78
2024/02/07 00:52:40;;;;;;;3.27;2.07;;;;;;;5.76;100.00;152841.38;5026822;28;20452;-78
2024/02/07 00:55:09;;;;;;;2.97;2.30;;;;;;;5.77;100.00;152842.69;5024526;28;20455;-78
2024/02/07 00:57:36;;;;;;;3.23;2.23;;;;;;;5.75;100.00;152838.78;5019797;28;20464;-78
2024/02/07 01:00:03;;;;;;;3.50;2.53;;;;;;;5.75;100.00;152838.78;5012269;28;20471;-78
2024/02/07 01:02:30;;;;;;;2.57;1.73;;;;;;;5.76;100.00;152840.06;5025660;28;20473;-78
2024/02/07 01:04:56;;;;;;;2.63;2.00;;;;;;;5.75;100.00;152837.47;5024161;28;20470;-78
2024/02/07 01:07:23;;;;;;;3.50;2.57;;;;;;;5.78;100.00;152846.53;5036722;28;20510;-78
2024/02/07 01:09:49;;;;;;;4.40;2.70;;;;;;;5.79;100.00;152849.13;5020227;28;20978;-78
2024/02/07 01:12:19;;;;;;;2.70;1.83;;;;;;;5.81;100.00;152854.28;5027626;28;20440;-78
2024/02/07 01:14:45;;;;;;;5.47;2.63;;;;;;;5.83;100.00;152859.41;5021302;28;20933;-78
2024/02/07 01:17:11;;;;;;;3.90;2.47;;;;;;;5.84;100.00;152860.72;5025015;28;20962;-78
2024/02/07 01:19:38;;;;;;;4.30;2.53;;;;;;;5.86;100.00;152867.22;5024371;28;20478;-78
2024/02/07 01:22:05;;;;;;;3.53;2.73;;;;;;;5.87;100.00;152869.81;5016406;28;20460;-78
2024/02/07 01:24:32;;;;;;;2.83;2.20;;;;;;;5.93;100.00;152884.00;5026642;28;20471;-78
2024/02/07 01:26:58;;;;;;;4.67;2.33;;;;;;;5.92;100.00;152882.69;5040962;28;20902;-78
2024/02/07 01:29:26;;;;;;;3.07;2.17;;;;;;;5.95;100.00;152890.44;5023929;28;20456;-78
2024/02/07 01:31:53;;;;;;;3.50;2.40;;;;;;;5.97;100.00;152895.59;5026844;28;20509;-78
2024/02/07 01:34:19;;;;;;;3.77;2.30;;;;;;;6.01;100.00;152904.66;5025471;28;20479;-78
2024/02/07 01:36:46;;;;;;;3.10;2.20;;;;;;;6.03;100.00;152911.09;5020425;28;20468;-78
2024/02/07 01:39:13;;;;;;;3.60;2.13;;;;;;;6.05;100.00;152916.25;5020052;28;20540;-77
2024/02/07 01:44:20;;;;;;;4.50;2.27;;;;;;;6.13;100.00;152936.88;5020685;28;20482;-78
2024/02/07 01:46:48;;;;;;;3.03;2.67;;;;;;;6.13;100.00;152936.88;5040211;28;20455;-78
2024/02/07 01:49:15;;;;;;;2.90;2.27;;;;;;;6.12;100.00;152934.28;5027039;28;20521;-78
2024/02/07 01:51:42;;;;;;;4.63;2.10;;;;;;;6.14;100.00;152939.44;5032377;28;20456;-78
2024/02/07 01:54:09;;;;;;;3.63;2.40;;;;;;;6.15;100.00;152940.72;5012794;28;20464;-78
2024/02/07 01:56:35;;;;;;;3.30;2.63;;;;;;;6.14;100.00;152939.44;5021037;28;20914;-78
2024/02/07 01:59:04;;;;;;;5.10;2.50;;;;;;;6.12;100.00;152934.28;5024631;28;20462;-78
2024/02/07 02:01:32;;;;;;;4.20;2.70;;;;;;;6.11;100.00;152931.72;5019378;28;20493;-78
2024/02/07 02:04:00;;;;;;;4.10;2.30;;;;;;;6.09;100.00;152926.53;5018496;28;21729;-78
2024/02/07 02:06:26;;;;;;;2.97;2.37;;;;;;;6.07;100.00;152921.38;5039809;28;20462;-78
2024/02/07 02:08:54;;;;;;;4.83;3.20;;;;;;;6.08;100.00;152922.69;5027182;28;20455;-78
2024/02/07 02:11:24;;;;;;;3.90;2.40;;;;;;;6.06;100.00;152917.53;5026731;28;20809;-78
2024/02/07 02:13:52;;;;;;;3.97;2.40;;;;;;;6.04;100.00;152913.63;5036940;28;20476;-78
2024/02/07 02:16:18;;;;;;;3.47;2.60;;;;;;;6.05;100.00;152914.94;5026864;28;20460;-78
2024/02/07 02:18:45;;;;;;;5.37;2.70;;;;;;;6.02;100.00;152908.50;5028520;28;20538;-78
2024/02/07 02:21:19;;;;;;;5.90;3.07;;;;;;;6.02;100.00;152908.50;5029653;28;20514;-78
2024/02/07 02:24:02;;;;;;;2.93;2.50;;;;;;;5.98;100.00;152896.91;5021820;28;20498;-78
2024/02/07 02:26:39;;;;;;;2.40;1.97;;;;;;;5.96;100.00;152891.69;5026188;28;20451;-78
2024/02/07 02:29:24;;;;;;;3.00;1.87;;;;;;;5.94;100.00;152887.84;5025518;28;20984;-78
2024/02/07 02:31:55;;;;;;;3.40;2.43;;;;;;;5.93;100.00;152885.25;5019643;28;20456;-78
2024/02/07 02:34:22;;;;;;;4.17;2.67;;;;;;;5.91;100.00;152880.09;5026726;28;20466;-78
2024/02/07 02:36:49;;;;;;;4.63;2.67;;;;;;;5.91;100.00;152878.81;5028506;28;20464;-78
2024/02/07 02:39:17;;;;;;;3.77;2.70;;;;;;;5.90;100.00;152876.25;5028852;28;20795;-78
2024/02/07 02:41:43;;;;;;;4.00;2.67;;;;;;;5.89;100.00;152874.97;5020034;28;20449;-77
2024/02/07 02:44:10;;;;;;;3.10;2.67;;;;;;;5.91;100.00;152880.09;5025817;28;20467;-78
2024/02/07 02:46:38;;;;;;;3.73;2.67;;;;;;;5.89;100.00;152874.97;5025964;28;20451;-78
2024/02/07 02:49:05;;;;;;;5.20;3.43;;;;;;;5.91;100.00;152878.81;5030704;28;20938;-78
2024/02/07 02:51:32;;;;;;;3.70;2.53;;;;;;;5.94;100.00;152887.84;5029919;28;20445;-77
2024/02/07 02:53:58;;;;;;;3.40;2.70;;;;;;;5.96;100.00;152891.69;5025894;28;20459;-77
2024/02/07 02:56:26;;;;;;;4.13;2.60;;;;;;;5.96;100.00;152893.00;5018611;28;20440;-77
2024/02/07 02:58:52;;;;;;;4.40;3.00;;;;;;;5.97;100.00;152895.59;5020318;28;21086;-78
2024/02/07 03:01:19;;;;;;;3.90;2.60;;;;;;;6.04;100.00;152912.34;5017440;28;21009;-77
2024/02/07 03:03:53;;;;;;;3.20;2.50;;;;;;;6.05;100.00;152916.25;5031638;28;20454;-78
2024/02/07 03:06:28;;;;;;;3.97;2.37;;;;;;;6.05;100.00;152916.25;5027027;28;20527;-77
2024/02/07 03:09:06;;;;;;;3.50;2.30;;;;;;;6.05;100.00;152916.25;5032181;28;20509;-77
2024/02/07 03:11:33;;;;;;;3.63;2.40;;;;;;;6.06;100.00;152918.78;5028772;28;20535;-77
2024/02/07 03:14:01;;;;;;;6.10;2.40;;;;;;;6.07;100.00;152921.38;5024935;28;20538;-76
2024/02/07 03:16:28;;;;;;;4.40;2.90;;;;;;;6.06;100.00;152918.78;5026293;28;20440;-76
2024/02/07 03:18:58;;;;;;;4.23;2.60;;;;;;;6.06;100.00;152918.78;5044223;28;20475;-76
2024/02/07 03:21:25;;;;;;;3.30;2.60;;;;;;;6.11;100.00;152930.44;5043941;28;20474;-76
2024/02/07 03:23:55;;;;;;;4.93;2.33;;;;;;;6.12;100.00;152932.97;5006009;28;21010;-77
2024/02/07 03:26:22;;;;;;;5.40;2.40;;;;;;;6.18;100.00;152947.19;5024546;28;20458;-76
2024/02/07 03:28:49;;;;;;;5.40;2.70;;;;;;;6.20;100.00;152952.31;5026967;28;20448;-76
2024/02/07 03:31:15;;;;;;;5.13;2.67;;;;;;;6.21;100.00;152954.94;5028447;28;20574;-76
2024/02/07 03:33:43;;;;;;;5.10;2.30;;;;;;;6.21;100.00;152956.22;5029552;28;20487;-77
2024/02/07 03:36:11;;;;;;;3.57;2.63;;;;;;;6.21;100.00;152956.22;5025623;28;20954;-76
2024/02/07 03:38:37;;;;;;;3.67;2.93;;;;;;;6.25;100.00;152966.53;5015316;28;20843;-76
2024/02/07 03:41:05;;;;;;;5.03;2.30;;;;;;;6.28;100.00;152972.97;5018013;28;20440;-76
2024/02/07 03:43:33;;;;;;;3.63;2.60;;;;;;;6.32;100.00;152983.31;5024618;28;20522;-78
2024/02/07 03:46:00;;;;;;;3.90;2.53;;;;;;;6.32;100.00;152983.31;5040117;28;20440;-76
2024/02/07 03:48:27;;;;;;;3.97;2.43;;;;;;;6.36;100.00;152993.63;5027674;28;20517;-76
2024/02/07 03:50:54;;;;;;;3.90;2.67;;;;;;;6.39;100.00;153001.38;5018964;28;20780;-77
2024/02/07 03:53:21;;;;;;;4.43;2.80;;;;;;;6.41;100.00;153006.53;5016272;28;20465;-77
2024/02/07 03:55:48;;;;;;;3.63;2.60;;;;;;;6.44;100.00;153015.56;5025483;28;20459;-78
2024/02/07 03:58:15;;;;;;;8.90;2.30;;;;;;;6.46;100.00;153019.47;5044423;28;20480;-78
2024/02/07 04:00:43;;;;;;;5.80;3.40;;;;;;;6.47;100.00;153023.31;5041516;28;20829;-77
2024/02/07 04:03:09;;;;;;;3.50;2.47;;;;;;;6.47;100.00;153022.00;5024489;28;20538;-78
2024/02/07 04:05:37;;;;;;;3.77;2.67;;;;;;;6.47;100.00;153022.00;5025503;28;20838;-78
2024/02/07 04:08:04;;;;;;;6.00;2.60;;;;;;;6.47;100.00;153022.00;5031400;28;20440;-78
2024/02/07 04:10:41;;;;;;;3.20;2.30;;;;;;;6.43;100.00;153011.72;5022102;28;20456;-77
2024/02/07 05:15:59;;;;;;;2.90;2.30;;;;;;;6.81;100.00;153108.47;5017699;28;20975;-77
2024/02/07 05:18:24;;;;;;;3.60;2.00;;;;;;;6.82;100.00;153112.38;5026820;28;20484;-77
2024/02/07 05:20:51;;;;;;;2.97;1.90;;;;;;;6.86;100.00;153121.44;5027271;28;20822;-78
2024/02/07 05:23:19;;;;;;;5.90;2.33;;;;;;;6.86;100.00;153122.69;5025533;28;20214;-77
2024/02/07 05:25:47;;;;;;;4.80;2.50;;;;;;;6.88;100.00;153127.88;5025068;28;21013;-78
2024/02/07 05:28:13;;;;;;;5.53;2.03;;;;;;;6.88;100.00;153126.59;5042849;28;20494;-78
2024/02/07 05:30:40;;;;;;;2.77;2.33;;;;;;;6.90;100.00;153133.03;5027636;28;20464;-77
2024/02/07 05:33:08;;;;;;;2.67;2.20;;;;;;;6.93;100.00;153140.78;5028440;28;21369;-77
2024/02/07 05:35:35;;;;;;;3.73;2.70;;;;;;;6.97;100.00;153149.78;5022493;28;20867;-77
2024/02/07 05:38:02;;;;;;;3.20;1.90;;;;;;;6.97;100.00;153151.09;5028366;28;21030;-77
2024/02/07 05:40:29;;;;;;;3.87;2.57;;;;;;;7.00;100.00;153157.53;5028761;28;20447;-77
2024/02/07 05:42:55;;;;;;;4.00;2.40;;;;;;;7.00;100.00;153158.84;5011047;28;20440;-77
2024/02/07 05:45:22;;;;;;;4.10;2.30;;;;;;;7.02;100.00;153164.00;5023651;28;20541;-77
2024/02/07 05:47:48;;;;;;;4.07;2.23;;;;;;;7.02;100.00;153164.00;5011154;28;20432;-77
2024/02/07 05:50:16;;;;;;;4.73;2.20;;;;;;;7.01;100.00;153160.13;5031865;28;20467;-77
2024/02/07 05:52:43;;;;;;;4.27;2.20;;;;;;;7.02;100.00;153164.00;5043120;28;20460;-77
2024/02/07 05:55:10;;;;;;;3.73;2.50;;;;;;;7.04;100.00;153167.91;5027903;28;21052;-77
2024/02/07 05:57:36;;;;;;;4.27;2.87;;;;;;;7.07;100.00;153176.91;5026872;28;20467;-77
2024/02/07 06:00:05;;;;;;;3.73;2.53;;;;;;;7.07;100.00;153176.91;5026705;28;20455;-76
2024/02/07 06:02:38;;;;;;;3.60;2.47;;;;;;;7.08;100.00;153179.50;5040593;28;20436;-77
2024/02/07 06:05:05;;;;;;;3.13;2.07;;;;;;;7.08;100.00;153178.19;5035343;28;20479;-77
2024/02/07 06:07:33;;;;;;;3.50;2.30;;;;;;;7.08;100.00;153179.50;5016064;28;20452;-77
2024/02/07 06:10:00;;;;;;;3.40;2.50;;;;;;;7.08;100.00;153179.50;5030187;28;20945;-77
2024/02/07 06:12:28;;;;;;;3.63;2.67;;;;;;;7.09;100.00;153182.09;5015909;28;20455;-77
2024/02/07 06:14:55;;;;;;;3.50;2.57;;;;;;;7.10;100.00;153183.34;5015477;28;20456;-77
2024/02/07 06:17:21;;;;;;;4.17;2.97;;;;;;;7.07;100.00;153176.91;5032279;28;20452;-77
2024/02/07 06:19:48;;;;;;;4.37;2.70;;;;;;;7.05;100.00;153171.75;5017225;28;20941;-77
2024/02/07 06:22:15;;;;;;;3.40;2.40;;;;;;;7.07;100.00;153176.91;5014142;28;20472;-77
2024/02/07 06:24:42;;;;;;;5.43;3.00;;;;;;;7.08;100.00;153178.19;5018831;28;20502;-77
2024/02/07 06:27:10;;;;;;;3.07;2.30;;;;;;;7.08;100.00;153178.19;5031346;28;20618;-77
2024/02/07 06:29:36;;;;;;;7.37;3.30;;;;;;;7.11;100.00;153187.25;5021385;28;20448;-77
2024/02/07 06:32:03;;;;;;;4.03;2.50;;;;;;;7.15;100.00;153197.56;5016525;28;20875;-77
2024/02/07 06:34:31;;;;;;;3.93;2.90;;;;;;;7.14;100.00;153195.00;5034405;28;21052;-77
2024/02/07 06:36:59;;;;;;;4.70;2.53;;;;;;;7.15;100.00;153197.56;5029425;28;20459;-77
2024/02/07 06:39:26;;;;;;;5.20;2.70;;;;;;;7.14;100.00;153195.00;5017555;28;20490;-77
2024/02/07 06:41:53;;;;;;;3.27;2.70;;;;;;;7.15;100.00;153196.25;5030990;28;20465;-77
2024/02/07 06:44:21;;;;;;;5.40;3.00;;;;;;;7.17;100.00;153202.75;5030415;28;20498;-77
2024/02/07 06:46:48;;;;;;;4.10;2.90;;;;;;;7.15;100.00;153197.56;5027578;28;20491;-77
2024/02/07 06:49:14;;;;;;;4.00;2.73;;;;;;;7.14;100.00;153195.00;5032356;28;20464;-77
2024/02/07 06:51:41;;;;;;;5.33;3.13;;;;;;;7.13;100.00;153192.41;5032669;28;21000;-77
2024/02/07 06:54:09;;;;;;;4.00;2.80;;;;;;;7.14;100.00;153193.72;5016476;28;20463;-77
2024/02/07 06:56:36;;;;;;;4.00;2.37;;;;;;;7.15;100.00;153196.25;5012331;28;20529;-77
2024/02/07 06:59:04;;;;;;;5.57;3.00;;;;;;;7.14;100.00;153195.00;5014656;28;20622;-77
2024/02/07 07:01:43;;;;;;;4.97;3.00;;;;;;;7.16;100.00;153200.16;5012702;28;20456;-78
2024/02/07 07:04:10;;;;;;;6.00;3.30;;;;;;;7.15;100.00;153197.56;5011545;28;20460;-77
2024/02/07 07:06:36;;;;;;;4.60;3.00;;;;;;;7.18;100.00;153205.31;5013190;28;20463;-76
2024/02/07 07:09:03;;;;;;;5.13;2.77;;;;;;;7.22;100.00;153215.66;5016144;28;20458;-77
2024/02/07 07:11:30;;;;;;;3.67;2.50;;;;;;;7.26;100.00;153225.97;5017283;28;20436;-76
2024/02/07 07:13:57;;;;;;;3.30;2.83;;;;;;;7.32;100.00;153241.47;5014357;28;20973;-76
2024/02/07 07:16:25;;;;;;;8.13;3.13;;;;;;;7.33;100.00;153244.03;5016012;28;20482;-76
2024/02/07 07:18:53;;;;;;;5.03;3.10;;;;;;;7.33;100.00;153244.03;5017629;28;20968;-77
2024/02/07 07:21:19;;;;;;;5.53;3.60;;;;;;;7.34;100.00;153246.63;5014711;28;20467;-77
2024/02/07 07:23:46;;;;;;;4.17;2.73;;;;;;;7.39;100.00;153258.25;5016845;28;20464;-76
2024/02/07 07:26:12;;;;;;;3.50;3.00;;;;;;;7.39;100.00;153258.25;5018032;28;20793;-76
2024/02/07 07:28:39;;;;;;;4.40;2.87;;;;;;;7.41;100.00;153262.16;5013653;28;20484;-76
2024/02/07 07:31:06;;;;;;;5.13;3.23;;;;;;;7.42;100.00;153266.00;5015277;28;20471;-76
2024/02/07 07:33:34;;;;;;;3.27;2.57;;;;;;;7.43;100.00;153268.59;5018321;28;20564;-77
2024/02/07 07:36:04;;;;;;;4.10;2.63;;;;;;;7.45;100.00;153273.75;5017429;28;20443;-77
2024/02/07 07:38:30;;;;;;;4.33;3.60;;;;;;;7.48;100.00;153280.22;5021750;28;20532;-76
2024/02/07 07:40:57;;;;;;;5.83;3.23;;;;;;;7.49;100.00;153282.81;5019043;28;20550;-76
2024/02/07 07:43:23;;;;;;;4.43;3.27;;;;;;;7.49;100.00;153284.13;5033418;28;20558;-76
2024/02/07 07:45:50;;;;;;;4.17;2.90;;;;;;;7.52;100.00;153291.81;5016739;28;20480;-76
2024/02/07 07:48:17;;;;;;;5.63;3.33;;;;;;;7.54;100.00;153295.72;5032204;28;20902;-76
2024/02/07 07:50:44;;;;;;;4.73;2.90;;;;;;;7.59;100.00;153308.63;5019274;28;20538;-76
2024/02/07 07:53:11;;;;;;;4.07;3.30;;;;;;;7.60;100.00;153311.25;5017777;28;20819;-76
2024/02/07 07:55:37;;;;;;;4.60;2.97;;;;;;;7.63;100.00;153318.94;5017950;28;20451;-76
2024/02/07 07:58:04;;;;;;;3.67;2.83;;;;;;;7.62;100.00;153316.41;5018445;28;20593;-76
2024/02/07 08:00:31;;;;;;;4.57;3.20;;;;;;;7.66;100.00;153326.72;5017993;28;21031;-76
2024/02/07 08:02:58;;;;;;;4.77;2.70;;;;;;;7.66;100.00;153328.00;5018729;28;20811;-76
2024/02/07 08:05:25;;;;;;;4.70;3.27;;;;;;;7.67;100.00;153329.31;5020892;28;20548;-76
2024/02/07 08:07:52;;;;;;;4.80;3.17;;;;;;;7.70;100.00;153338.38;5018811;28;20459;-76
2024/02/07 08:10:19;;;;;;;3.37;2.97;;;;;;;7.71;100.00;153340.91;5019580;28;20858;-76
2024/02/07 08:12:45;;;;;;;4.53;3.03;;;;;;;7.73;100.00;153344.81;5017471;28;20922;-76
2024/02/07 08:15:12;;;;;;;3.80;3.20;;;;;;;7.78;100.00;153357.72;5019689;28;20927;-76
2024/02/07 08:17:38;;;;;;;3.83;2.70;;;;;;;7.77;100.00;153356.44;5035032;28;20460;-77
2024/02/07 08:20:06;;;;;;;5.63;3.60;;;;;;;7.81;100.00;153365.50;5018060;28;20507;-77
2024/02/07 08:22:32;;;;;;;7.40;3.07;;;;;;;7.80;100.00;153362.88;5016955;28;20869;-77
2024/02/07 08:25:00;;;;;;;3.80;2.80;;;;;;;7.78;100.00;153358.97;5018044;28;20518;-77
2024/02/07 08:27:27;;;;;;;7.10;3.10;;;;;;;7.80;100.00;153362.88;5017424;28;20455;-76
2024/02/07 08:29:53;;;;;;;4.93;3.03;;;;;;;7.84;100.00;153373.19;5018527;28;20934;-76
2024/02/07 08:32:20;;;;;;;4.27;2.97;;;;;;;7.89;100.00;153386.13;5019643;28;20484;-76
2024/02/07 08:34:47;;;;;;;3.67;2.80;;;;;;;7.93;100.00;153396.47;5037395;28;20463;-76
2024/02/07 08:37:13;;;;;;;5.30;2.77;;;;;;;7.98;100.00;153409.41;5030725;28;20465;-76
2024/02/07 08:39:40;;;;;;;4.37;2.97;;;;;;;7.98;100.00;153410.69;5014007;28;20835;-76
2024/02/07 08:42:08;;;;;;;4.83;3.00;;;;;;;7.98;100.00;153410.69;5015669;28;20452;-76
2024/02/07 08:44:34;;;;;;;3.67;2.80;;;;;;;7.99;100.00;153412.00;5013334;28;20475;-76
2024/02/07 08:47:01;;;;;;;7.37;3.13;;;;;;;8.02;100.00;153419.75;5013579;28;20790;-76
2024/02/07 08:49:27;;;;;;;3.40;2.40;;;;;;;8.02;100.00;153419.75;5029489;28;21429;-76
2024/02/07 08:51:54;;;;;;;5.00;2.90;;;;;;;8.04;100.00;153424.91;5014494;28;20543;-76
2024/02/07 08:54:22;;;;;;;4.30;2.73;;;;;;;8.06;100.00;153430.06;5018073;28;20492;-76
2024/02/07 08:56:48;;;;;;;4.53;3.10;;;;;;;8.07;100.00;153432.66;5032459;28;20482;-76
2024/02/07 08:59:16;;;;;;;3.73;2.73;;;;;;;8.07;100.00;153432.66;5028018;28;20480;-76
2024/02/07 09:01:43;;;;;;;5.90;2.57;;;;;;;8.12;100.00;153444.28;5017039;28;20566;-76
2024/02/07 09:04:09;;;;;;;5.30;3.30;;;;;;;8.14;100.00;153450.75;5015414;28;20455;-76
2024/02/07 09:06:36;;;;;;;4.43;2.50;;;;;;;8.17;100.00;153457.19;5013622;28;20836;-76
2024/02/07 09:09:03;;;;;;;3.87;2.50;;;;;;;8.18;100.00;153459.81;5014763;28;20455;-76
2024/02/07 09:11:29;;;;;;;4.70;3.10;;;;;;;8.21;100.00;153467.50;5016396;28;20458;-76
2024/02/07 09:13:57;;;;;;;3.43;2.83;;;;;;;8.22;100.00;153470.13;5012152;28;20918;-76
2024/02/07 09:16:25;;;;;;;3.67;2.60;;;;;;;8.22;100.00;153471.44;5030072;28;20468;-76
2024/02/07 09:18:52;;;;;;;3.87;2.67;;;;;;;8.22;100.00;153471.44;5027104;28;21183;-75
2024/02/07 09:21:19;;;;;;;5.20;3.17;;;;;;;8.27;100.00;153484.41;5015756;28;20818;-76
2024/02/07 09:23:47;;;;;;;4.30;3.43;;;;;;;8.30;100.00;153492.16;5014371;28;21206;-76
2024/02/07 09:26:13;;;;;;;4.80;3.03;;;;;;;8.28;100.00;153487.00;5024861;28;20459;-76
2024/02/07 09:28:39;;;;;;;6.27;3.00;;;;;;;8.30;100.00;153492.16;5030981;28;20489;-76
2024/02/07 09:31:06;;;;;;;4.37;3.50;;;;;;;8.34;100.00;153501.22;5011391;28;20459;-76
2024/02/07 09:33:34;;;;;;;3.70;3.30;;;;;;;8.33;100.00;153498.63;5029524;28;20479;-76
2024/02/07 09:36:01;;;;;;;3.83;2.50;;;;;;;8.38;100.00;153512.84;5027561;28;20449;-76
2024/02/07 09:38:27;;;;;;;4.30;3.43;;;;;;;8.42;100.00;153521.84;5013521;28;21631;-76
2024/02/07 09:40:57;;;;;;;6.40;3.40;;;;;;;8.45;100.00;153530.91;5016273;28;20471;-76
2024/02/07 09:43:24;;;;;;;5.03;3.30;;;;;;;8.43;100.00;153525.75;5015117;28;20460;-76
2024/02/07 09:45:56;;;;;;;6.00;3.40;;;;;;;8.46;100.00;153533.53;5023625;28;20448;-76
2024/02/07 09:48:24;;;;;;;3.30;3.00;;;;;;;8.51;100.00;153546.44;5021821;28;20451;-76
2024/02/07 09:50:53;;;;;;;6.67;3.70;;;;;;;8.50;100.00;153543.84;5013592;28;20461;-77
2024/02/07 09:53:20;;;;;;;3.83;2.90;;;;;;;8.51;100.00;153545.13;5011837;28;20451;-77
2024/02/07 09:55:47;;;;;;;4.07;2.73;;;;;;;8.53;100.00;153551.59;5032768;28;20457;-77
2024/02/07 09:58:14;;;;;;;4.50;2.77;;;;;;;8.55;100.00;153555.50;5016981;28;21125;-77
2024/02/07 10:00:41;;;;;;;4.83;3.40;;;;;;;8.56;100.00;153559.38;5030803;28;20499;-77
2024/02/07 10:03:08;;;;;;;6.63;4.10;;;;;;;8.61;100.00;153569.69;5012630;28;20510;-77
2024/02/07 10:05:35;;;;;;;6.03;3.40;;;;;;;8.63;100.00;153576.13;5014641;28;20497;-76
2024/02/07 10:08:05;;;;;;;3.80;2.83;;;;;;;8.67;100.00;153585.22;5013209;28;20467;-77
2024/02/07 10:10:32;;;;;;;3.73;2.80;;;;;;;8.73;100.00;153600.72;5016447;28;20971;-76
2024/02/07 10:12:58;;;;;;;7.27;3.10;;;;;;;8.79;100.00;153616.25;5012418;28;20503;-77
2024/02/07 10:15:25;;;;;;;5.30;3.20;;;;;;;8.81;100.00;153621.41;5033621;28;20459;-77
2024/02/07 10:17:51;;;;;;;4.63;2.87;;;;;;;8.87;100.00;153636.94;5014739;28;20456;-77
2024/02/07 10:20:18;;;;;;;5.33;2.80;;;;;;;8.92;100.00;153649.88;5016866;28;20487;-77
2024/02/07 10:22:45;;;;;;;4.60;2.37;;;;;;;8.90;100.00;153644.66;5030316;28;20507;-77
2024/02/07 10:25:15;;;;;;;3.23;2.50;;;;;;;8.98;100.00;153665.34;5031127;28;20951;-77
2024/02/07 10:27:43;;;;;;;3.17;2.40;;;;;;;9.02;100.00;153675.72;5015416;28;20809;-77
2024/02/07 10:30:10;;;;;;;3.47;2.37;;;;;;;9.07;100.00;153688.66;5016071;28;20459;-77
2024/02/07 10:32:38;;;;;;;3.23;2.20;;;;;;;9.09;100.00;153695.13;5015726;28;20751;-77
2024/02/07 10:35:10;;;;;;;6.37;2.40;;;;;;;9.15;99.39;153709.34;5016104;28;20449;-77
2024/02/07 10:37:40;;;;;;;3.63;2.63;;;;;;;9.18;98.87;153718.41;5017504;28;20455;-77
2024/02/07 10:40:08;;;;;;;3.00;2.27;;;;;;;9.21;98.62;153723.59;5034758;28;20856;-77
2024/02/07 10:42:36;;;;;;;4.83;2.50;;;;;;;9.22;99.45;153727.44;5033669;28;20456;-77
2024/02/07 10:45:07;;;;;;;2.83;1.90;;;;;;;9.22;99.27;153726.13;5017022;28;20448;-77
2024/02/07 10:47:34;;;;;;;7.13;2.40;;;;;;;9.21;99.43;153724.88;5016722;28;20451;-77
2024/02/07 10:50:02;;;;;;;6.30;2.47;;;;;;;9.25;99.20;153735.22;5021189;28;20455;-76
2024/02/07 10:52:29;;;;;;;2.63;2.20;;;;;;;9.26;98.27;153737.81;5014431;28;20455;-77
2024/02/07 10:54:56;;;;;;;3.47;2.40;;;;;;;9.30;99.14;153748.13;5020540;28;21010;-76
2024/02/07 10:57:27;;;;;;;2.80;2.10;;;;;;;9.32;99.22;153753.31;5018866;28;20448;-76
2024/02/07 10:59:56;;;;;;;2.90;1.87;;;;;;;9.34;98.52;153757.22;5017534;28;20549;-77
2024/02/07 11:02:24;;;;;;;7.00;3.13;;;;;;;9.37;98.99;153766.22;5019645;28;20879;-77
2024/02/07 11:04:52;;;;;;;3.17;2.30;;;;;;;9.38;98.83;153768.84;5020139;28;20984;-77
2024/02/07 11:07:19;;;;;;;6.17;2.50;;;;;;;9.39;98.80;153771.44;5034445;28;21404;-77
2024/02/07 11:09:46;;;;;;;7.63;2.10;;;;;;;9.38;99.64;153767.53;5020051;28;20513;-77
2024/02/07 11:12:13;;;;;;;2.87;2.30;;;;;;;9.33;98.16;153755.91;5017889;28;20553;-77
2024/02/07 11:14:40;;;;;;;4.73;3.03;;;;;;;9.39;99.02;153770.13;5019389;28;20463;-77
2024/02/07 11:17:08;;;;;;;4.10;2.37;;;;;;;9.38;98.05;153768.84;5031600;28;20457;-76
2024/02/07 11:19:35;;;;;;;3.90;2.83;;;;;;;9.43;97.90;153781.75;5019663;28;20846;-77
2024/02/07 11:22:02;;;;;;;3.60;2.33;;;;;;;9.42;98.82;153779.22;5018258;28;20463;-77
2024/02/07 11:24:29;;;;;;;4.40;2.70;;;;;;;9.43;98.55;153780.47;5022093;28;20517;-77
2024/02/07 11:26:56;;;;;;;2.80;2.30;;;;;;;9.43;99.44;153781.75;5033866;28;20455;-77
2024/02/07 11:29:23;;;;;;;2.77;2.00;;;;;;;9.43;98.90;153781.75;5020637;28;20518;-77
2024/02/07 11:31:53;;;;;;;2.33;1.80;;;;;;;9.47;99.00;153792.13;5018120;28;20447;-77
2024/02/07 11:34:21;;;;;;;4.43;2.30;;;;;;;9.47;97.59;153792.13;5017725;28;20464;-77
2024/02/07 11:36:53;;;;;;;3.40;2.00;;;;;;;9.53;97.94;153806.38;5017365;28;20451;-77
2024/02/07 11:39:19;;;;;;;2.63;2.10;;;;;;;9.56;97.41;153815.41;5019810;28;20460;-77
2024/02/07 11:41:47;;;;;;;6.50;2.90;;;;;;;9.62;98.54;153830.94;5018085;28;20493;-77
2024/02/07 11:44:15;;;;;;;6.67;2.27;;;;;;;9.62;98.76;153830.94;5019496;28;20566;-76
2024/02/07 11:46:49;;;;;;;4.60;1.87;;;;;;;9.64;98.17;153836.09;5016477;28;20466;-77
2024/02/07 11:49:17;;;;;;;3.20;2.30;;;;;;;9.69;97.66;153849.03;5016635;28;20456;-77
2024/02/07 11:51:46;;;;;;;3.73;1.90;;;;;;;9.76;97.67;153867.19;5022313;28;20452;-77
2024/02/07 11:54:20;;;;;;;2.03;1.40;;;;;;;9.82;97.75;153880.13;5032245;28;20466;-77
2024/02/07 11:56:54;;;;;;;2.90;2.60;;;;;;;9.93;97.03;153908.59;5034131;28;20460;-77
2024/02/07 11:59:21;;;;;;;2.77;1.97;;;;;;;9.99;97.05;153925.38;5016518;28;20467;-76
2024/02/07 12:01:48;;;;;;;2.63;2.10;;;;;;;10.04;95.11;153937.03;5019110;28;20488;-78
2024/02/07 12:04:16;;;;;;;2.37;1.63;;;;;;;10.11;94.86;153955.19;5035747;28;20870;-78
2024/02/07 12:06:42;;;;;;;4.10;1.90;;;;;;;10.16;95.86;153969.47;5028047;28;21060;-78
2024/02/07 12:09:10;;;;;;;2.30;1.70;;;;;;;10.21;95.90;153981.09;5017453;28;20469;-78
2024/02/07 12:11:38;;;;;;;2.60;1.57;;;;;;;10.28;94.29;154000.50;5016552;28;20859;-77
2024/02/07 12:14:04;;;;;;;3.60;1.60;;;;;;;10.33;93.80;154013.47;5032331;28;20461;-78
2024/02/07 12:16:31;;;;;;;2.53;1.60;;;;;;;10.42;92.86;154035.47;5032292;28;20471;-77
2024/02/07 12:18:57;;;;;;;2.63;1.83;;;;;;;10.45;92.96;154041.94;5018053;28;20845;-78
2024/02/07 12:21:24;;;;;;;2.57;1.37;;;;;;;10.46;93.49;154044.56;5017323;28;20473;-78
2024/02/07 12:23:51;;;;;;;3.60;1.43;;;;;;;10.45;91.85;154041.94;5012750;28;20510;-78
2024/02/07 12:26:23;;;;;;;2.17;1.47;;;;;;;10.52;92.10;154061.34;5019059;28;20451;-78
2024/02/07 12:28:54;;;;;;;3.60;1.90;;;;;;;10.58;91.98;154076.91;5017499;28;20517;-78
2024/02/07 12:31:21;;;;;;;3.13;1.20;;;;;;;10.61;92.91;154084.69;5016741;28;20457;-78
2024/02/07 12:33:47;;;;;;;3.33;1.40;;;;;;;10.65;90.30;154095.03;5015930;28;20481;-78